PWSweather.com
Personal Weather Stations
Station Observations
STWO1
East Side, Stillwater, OK 74075

East SideStillwater, OK 74075

Lat: 36.1242949, Lon: -97.044042

Elevation: 942

Station Type: Davis VP2

http://stillwaterweather.com

High Low Average
Temperature 48.8°F9.3°C 39.1°F3.9°C 43.4°F6.3°C
Dew Point 33.1°F0.6°C 22.4°F-5.3°C 27.7°F-2.4°C
Winds 15.0 mph 24.1 kmh 1.2 mph 1.9 kmh 6.0 mph WNW9.7 kmh WNW
Wind Gusts 27.6 mph44.4 kmh 3.5 mph5.6 kmh 13.0 mph20.9 kmh
Humidity 66% 39% 54%
Pressure 30.07 in1018.3 mb 29.67 in1004.7 mb -
Precipitation 0.00 in0.0 mm - -
Hour Temp Dew Point Humidity Winds Wind Gusts Pressure Precip Precip Rate Daily Precip Total
12:00 AM 46.7°F8.2°C 33.1°F0.6°C 59% 4.6 mph WSW7.4 kmh WSW 10.4 mph16.7 kmh 29.67 in1004.7 mb - 0.00 in0.0 mm 0.00 in0.0 mm
12:10 AM 46.3°F7.9°C 32.8°F0.4°C 59% 3.5 mph W5.6 kmh W 11.5 mph18.5 kmh 29.68 in1005.1 mb - 0.00 in0.0 mm 0.00 in0.0 mm
12:20 AM 46.0°F7.8°C 32.5°F0.3°C 59% 8.1 mph W13.0 kmh W 18.4 mph29.6 kmh 29.67 in1004.7 mb - 0.00 in0.0 mm 0.00 in0.0 mm
12:30 AM 45.7°F7.6°C 32.2°F0.1°C 59% 2.3 mph WSW3.7 kmh WSW 5.8 mph9.3 kmh 29.67 in1004.7 mb - 0.00 in0.0 mm 0.00 in0.0 mm
12:40 AM 45.2°F7.3°C 31.7°F-0.2°C 59% 3.5 mph W5.6 kmh W 11.5 mph18.5 kmh 29.67 in1004.7 mb - 0.00 in0.0 mm 0.00 in0.0 mm
12:50 AM 44.7°F7.1°C 31.7°F-0.2°C 60% 4.6 mph WSW7.4 kmh WSW 8.1 mph13.0 kmh 29.68 in1005.1 mb - 0.00 in0.0 mm 0.00 in0.0 mm
01:00 AM 44.2°F6.8°C 31.2°F-0.4°C 60% 3.5 mph W5.6 kmh W 10.4 mph16.7 kmh 29.67 in1004.7 mb - 0.00 in0.0 mm 0.00 in0.0 mm
01:10 AM 43.7°F6.5°C 30.7°F-0.7°C 60% 8.1 mph WSW13.0 kmh WSW 11.5 mph18.5 kmh 29.68 in1005.1 mb - 0.00 in0.0 mm 0.00 in0.0 mm
01:20 AM 43.3°F6.3°C 30.7°F-0.7°C 61% 5.8 mph WSW9.3 kmh WSW 9.2 mph14.8 kmh 29.68 in1005.1 mb - 0.00 in0.0 mm 0.00 in0.0 mm
01:30 AM 42.8°F6.0°C 30.7°F-0.7°C 62% 6.9 mph WNW11.1 kmh WNW 10.4 mph16.7 kmh 29.68 in1005.1 mb - 0.00 in0.0 mm 0.00 in0.0 mm
01:40 AM 42.5°F5.8°C 30.8°F-0.7°C 63% 5.8 mph W9.3 kmh W 12.7 mph20.4 kmh 29.68 in1005.1 mb - 0.00 in0.0 mm 0.00 in0.0 mm
01:50 AM 42.2°F5.7°C 30.5°F-0.8°C 63% 6.9 mph WSW11.1 kmh WSW 8.1 mph13.0 kmh 29.67 in1004.7 mb - 0.00 in0.0 mm 0.00 in0.0 mm
02:00 AM 41.9°F5.5°C 30.6°F-0.8°C 64% 5.8 mph W9.3 kmh W 16.1 mph25.9 kmh 29.68 in1005.1 mb - 0.00 in0.0 mm 0.00 in0.0 mm
02:10 AM 41.8°F5.4°C 30.5°F-0.8°C 64% 4.6 mph WSW7.4 kmh WSW 6.9 mph11.1 kmh 29.68 in1005.1 mb - 0.00 in0.0 mm 0.00 in0.0 mm
02:20 AM 41.5°F5.3°C 30.2°F-1.0°C 64% 3.5 mph W5.6 kmh W 8.1 mph13.0 kmh 29.68 in1005.1 mb - 0.00 in0.0 mm 0.00 in0.0 mm
02:30 AM 41.2°F5.1°C 29.9°F-1.2°C 64% 2.3 mph WSW3.7 kmh WSW 3.5 mph5.6 kmh 29.68 in1005.1 mb - 0.00 in0.0 mm 0.00 in0.0 mm
02:40 AM 41.0°F5.0°C 30.1°F-1.1°C 65% 4.6 mph WSW7.4 kmh WSW 11.5 mph18.5 kmh 29.68 in1005.1 mb - 0.00 in0.0 mm 0.00 in0.0 mm
02:50 AM 40.7°F4.8°C 29.8°F-1.2°C 65% 8.1 mph WSW13.0 kmh WSW 17.3 mph27.8 kmh 29.68 in1005.1 mb - 0.00 in0.0 mm 0.00 in0.0 mm
03:00 AM 40.8°F4.9°C 29.9°F-1.2°C 65% 8.1 mph WSW13.0 kmh WSW 11.5 mph18.5 kmh 29.68 in1005.1 mb - 0.00 in0.0 mm 0.00 in0.0 mm
03:10 AM 40.7°F4.8°C 29.8°F-1.2°C 65% 8.1 mph WSW13.0 kmh WSW 13.8 mph22.2 kmh 29.68 in1005.1 mb - 0.00 in0.0 mm 0.00 in0.0 mm
03:20 AM 40.6°F4.8°C 29.7°F-1.3°C 65% 3.5 mph SW5.6 kmh SW 12.7 mph20.4 kmh 29.68 in1005.1 mb - 0.00 in0.0 mm 0.00 in0.0 mm
03:30 AM 40.4°F4.7°C 29.6°F-1.3°C 65% 6.9 mph SW11.1 kmh SW 12.7 mph20.4 kmh 29.68 in1005.1 mb - 0.00 in0.0 mm 0.00 in0.0 mm
03:40 AM 40.2°F4.6°C 29.4°F-1.4°C 65% 4.6 mph SW7.4 kmh SW 10.4 mph16.7 kmh 29.69 in1005.4 mb - 0.00 in0.0 mm 0.00 in0.0 mm
03:50 AM 40.3°F4.6°C 29.5°F-1.4°C 65% 8.1 mph SW13.0 kmh SW 12.7 mph20.4 kmh 29.69 in1005.4 mb - 0.00 in0.0 mm 0.00 in0.0 mm
04:00 AM 40.3°F4.6°C 29.5°F-1.4°C 65% 4.6 mph WSW7.4 kmh WSW 10.4 mph16.7 kmh 29.69 in1005.4 mb - 0.00 in0.0 mm 0.00 in0.0 mm
04:10 AM 40.1°F4.5°C 29.3°F-1.5°C 65% 8.1 mph SW13.0 kmh SW 8.1 mph13.0 kmh 29.68 in1005.1 mb - 0.00 in0.0 mm 0.00 in0.0 mm
04:20 AM 39.7°F4.3°C 28.9°F-1.7°C 65% 5.8 mph WSW9.3 kmh WSW 8.1 mph13.0 kmh 29.69 in1005.4 mb - 0.00 in0.0 mm 0.00 in0.0 mm
04:30 AM 39.5°F4.2°C 29.1°F-1.6°C 66% 6.9 mph SW11.1 kmh SW 11.5 mph18.5 kmh 29.68 in1005.1 mb - 0.00 in0.0 mm 0.00 in0.0 mm
04:40 AM 39.3°F4.1°C 28.9°F-1.7°C 66% 3.5 mph WSW5.6 kmh WSW 6.9 mph11.1 kmh 29.69 in1005.4 mb - 0.00 in0.0 mm 0.00 in0.0 mm
04:50 AM 39.5°F4.2°C 28.7°F-1.8°C 65% 3.5 mph WSW5.6 kmh WSW 8.1 mph13.0 kmh 29.69 in1005.4 mb - 0.00 in0.0 mm 0.00 in0.0 mm
05:00 AM 39.8°F4.3°C 28.6°F-1.9°C 64% 8.1 mph WSW13.0 kmh WSW 17.3 mph27.8 kmh 29.69 in1005.4 mb - 0.00 in0.0 mm 0.00 in0.0 mm
05:10 AM 40.1°F4.5°C 28.5°F-1.9°C 63% 9.2 mph W14.8 kmh W 19.6 mph31.5 kmh 29.69 in1005.4 mb - 0.00 in0.0 mm 0.00 in0.0 mm
05:20 AM 40.1°F4.5°C 28.1°F-2.2°C 62% 4.6 mph W7.4 kmh W 18.4 mph29.6 kmh 29.69 in1005.4 mb - 0.00 in0.0 mm 0.00 in0.0 mm
05:30 AM 40.1°F4.5°C 28.1°F-2.2°C 62% 5.8 mph W9.3 kmh W 11.5 mph18.5 kmh 29.69 in1005.4 mb - 0.00 in0.0 mm 0.00 in0.0 mm
05:40 AM 40.1°F4.5°C 28.1°F-2.2°C 62% 9.2 mph WSW14.8 kmh WSW 13.8 mph22.2 kmh 29.70 in1005.8 mb - 0.00 in0.0 mm 0.00 in0.0 mm
05:50 AM 40.0°F4.4°C 28.0°F-2.2°C 62% 8.1 mph WSW13.0 kmh WSW 19.6 mph31.5 kmh 29.70 in1005.8 mb - 0.00 in0.0 mm 0.00 in0.0 mm
06:00 AM 39.8°F4.3°C 27.8°F-2.3°C 62% 5.8 mph W9.3 kmh W 12.7 mph20.4 kmh 29.70 in1005.8 mb - 0.00 in0.0 mm 0.00 in0.0 mm
06:10 AM 39.8°F4.3°C 27.8°F-2.3°C 62% 5.8 mph WSW9.3 kmh WSW 12.7 mph20.4 kmh 29.70 in1005.8 mb - 0.00 in0.0 mm 0.00 in0.0 mm
06:20 AM 39.6°F4.2°C 27.6°F-2.4°C 62% 5.8 mph W9.3 kmh W 10.4 mph16.7 kmh 29.70 in1005.8 mb - 0.00 in0.0 mm 0.00 in0.0 mm
06:30 AM 39.5°F4.2°C 27.5°F-2.5°C 62% 5.8 mph WSW9.3 kmh WSW 6.9 mph11.1 kmh 29.70 in1005.8 mb - 0.00 in0.0 mm 0.00 in0.0 mm
06:40 AM 39.5°F4.2°C 27.9°F-2.3°C 63% 5.8 mph WSW9.3 kmh WSW 10.4 mph16.7 kmh 29.70 in1005.8 mb - 0.00 in0.0 mm 0.00 in0.0 mm
06:50 AM 39.3°F4.1°C 27.7°F-2.4°C 63% 6.9 mph WSW11.1 kmh WSW 12.7 mph20.4 kmh 29.71 in1006.1 mb - 0.00 in0.0 mm 0.00 in0.0 mm
07:00 AM 39.2°F4.0°C 27.7°F-2.4°C 63% 5.8 mph W9.3 kmh W 9.2 mph14.8 kmh 29.70 in1005.8 mb - 0.00 in0.0 mm 0.00 in0.0 mm
07:10 AM 39.1°F3.9°C 27.6°F-2.4°C 63% 8.1 mph WSW13.0 kmh WSW 12.7 mph20.4 kmh 29.71 in1006.1 mb - 0.00 in0.0 mm 0.00 in0.0 mm
07:20 AM 39.4°F4.1°C 27.4°F-2.6°C 62% 10.4 mph WSW16.7 kmh WSW 12.7 mph20.4 kmh 29.70 in1005.8 mb - 0.00 in0.0 mm 0.00 in0.0 mm
07:30 AM 39.5°F4.2°C 27.6°F-2.4°C 62% 5.8 mph WSW9.3 kmh WSW 10.4 mph16.7 kmh 29.70 in1005.8 mb - 0.00 in0.0 mm 0.00 in0.0 mm
07:40 AM 39.7°F4.3°C 27.3°F-2.6°C 61% 6.9 mph WSW11.1 kmh WSW 11.5 mph18.5 kmh 29.70 in1005.8 mb - 0.00 in0.0 mm 0.00 in0.0 mm
07:50 AM 39.9°F4.4°C 27.5°F-2.5°C 61% 5.8 mph WNW9.3 kmh WNW 9.2 mph14.8 kmh 29.70 in1005.8 mb - 0.00 in0.0 mm 0.00 in0.0 mm
08:00 AM 40.4°F4.7°C 27.6°F-2.4°C 60% 8.1 mph W13.0 kmh W 18.4 mph29.6 kmh 29.70 in1005.8 mb - 0.00 in0.0 mm 0.00 in0.0 mm
08:10 AM 41.1°F5.1°C 27.9°F-2.3°C 59% 11.5 mph WNW18.5 kmh WNW 19.6 mph31.5 kmh 29.70 in1005.8 mb - 0.00 in0.0 mm 0.00 in0.0 mm
08:20 AM 41.7°F5.4°C 28.0°F-2.2°C 58% 9.2 mph WSW14.8 kmh WSW 17.3 mph27.8 kmh 29.71 in1006.1 mb - 0.00 in0.0 mm 0.00 in0.0 mm
08:30 AM 42.2°F5.7°C 27.6°F-2.4°C 56% 8.1 mph W13.0 kmh W 13.8 mph22.2 kmh 29.70 in1005.8 mb - 0.00 in0.0 mm 0.00 in0.0 mm
08:40 AM 42.4°F5.8°C 27.8°F-2.3°C 56% 5.8 mph W9.3 kmh W 12.7 mph20.4 kmh 29.71 in1006.1 mb - 0.00 in0.0 mm 0.00 in0.0 mm
08:50 AM 42.6°F5.9°C 28.0°F-2.2°C 56% 8.1 mph W13.0 kmh W 13.8 mph22.2 kmh 29.71 in1006.1 mb - 0.00 in0.0 mm 0.00 in0.0 mm
09:00 AM 42.8°F6.0°C 28.2°F-2.1°C 56% 8.1 mph WSW13.0 kmh WSW 16.1 mph25.9 kmh 29.72 in1006.4 mb - 0.00 in0.0 mm 0.00 in0.0 mm
09:10 AM 42.9°F6.1°C 28.3°F-2.1°C 56% 11.5 mph WNW18.5 kmh WNW 16.1 mph25.9 kmh 29.72 in1006.4 mb - 0.00 in0.0 mm 0.00 in0.0 mm
09:20 AM 42.9°F6.1°C 28.3°F-2.1°C 56% 12.7 mph W20.4 kmh W 24.2 mph38.9 kmh 29.72 in1006.4 mb - 0.00 in0.0 mm 0.00 in0.0 mm
09:30 AM 43.0°F6.1°C 28.8°F-1.8°C 57% 6.9 mph WNW11.1 kmh WNW 20.7 mph33.3 kmh 29.73 in1006.8 mb - 0.00 in0.0 mm 0.00 in0.0 mm
09:40 AM 43.1°F6.2°C 29.3°F-1.5°C 58% 8.1 mph W13.0 kmh W 24.2 mph38.9 kmh 29.74 in1007.1 mb - 0.00 in0.0 mm 0.00 in0.0 mm
09:50 AM 43.3°F6.3°C 29.5°F-1.4°C 58% 5.8 mph W9.3 kmh W 11.5 mph18.5 kmh 29.74 in1007.1 mb - 0.00 in0.0 mm 0.00 in0.0 mm
10:00 AM 43.6°F6.4°C 29.8°F-1.2°C 58% 9.2 mph NW14.8 kmh NW 23.0 mph37.0 kmh 29.74 in1007.1 mb - 0.00 in0.0 mm 0.00 in0.0 mm
10:10 AM 44.6°F7.0°C 30.3°F-0.9°C 57% 6.9 mph NW11.1 kmh NW 16.1 mph25.9 kmh 29.75 in1007.5 mb - 0.00 in0.0 mm 0.00 in0.0 mm
10:20 AM 44.2°F6.8°C 29.9°F-1.2°C 57% 9.2 mph W14.8 kmh W 17.3 mph27.8 kmh 29.76 in1007.8 mb - 0.00 in0.0 mm 0.00 in0.0 mm
10:30 AM 44.2°F6.8°C 29.9°F-1.2°C 57% 8.1 mph WNW13.0 kmh WNW 16.1 mph25.9 kmh 29.77 in1008.1 mb - 0.00 in0.0 mm 0.00 in0.0 mm
10:40 AM 44.1°F6.7°C 29.8°F-1.2°C 57% 10.4 mph NW16.7 kmh NW 19.6 mph31.5 kmh 29.78 in1008.5 mb - 0.00 in0.0 mm 0.00 in0.0 mm
10:50 AM 45.0°F7.2°C 30.2°F-1.0°C 56% 5.8 mph WNW9.3 kmh WNW 11.5 mph18.5 kmh 29.78 in1008.5 mb - 0.00 in0.0 mm 0.00 in0.0 mm
11:00 AM 45.0°F7.2°C 30.2°F-1.0°C 56% 10.4 mph NNW16.7 kmh NNW 23.0 mph37.0 kmh 29.78 in1008.5 mb - 0.00 in0.0 mm 0.00 in0.0 mm
11:10 AM 45.1°F7.3°C 30.3°F-0.9°C 56% 6.9 mph NW11.1 kmh NW 26.5 mph42.6 kmh 29.79 in1008.8 mb - 0.00 in0.0 mm 0.00 in0.0 mm
11:20 AM 44.6°F7.0°C 29.9°F-1.2°C 56% 8.1 mph NW13.0 kmh NW 19.6 mph31.5 kmh 29.80 in1009.1 mb - 0.00 in0.0 mm 0.00 in0.0 mm
11:30 AM 44.1°F6.7°C 30.3°F-0.9°C 58% 6.9 mph NW11.1 kmh NW 18.4 mph29.6 kmh 29.80 in1009.1 mb - 0.00 in0.0 mm 0.00 in0.0 mm
11:40 AM 43.8°F6.6°C 30.4°F-0.9°C 59% 8.1 mph WNW13.0 kmh WNW 11.5 mph18.5 kmh 29.80 in1009.1 mb - 0.00 in0.0 mm 0.00 in0.0 mm
11:50 AM 43.8°F6.6°C 30.4°F-0.9°C 59% 9.2 mph WNW14.8 kmh WNW 24.2 mph38.9 kmh 29.81 in1009.5 mb - 0.00 in0.0 mm 0.00 in0.0 mm
12:00 PM 43.9°F6.6°C 30.5°F-0.8°C 59% 11.5 mph NW18.5 kmh NW 16.1 mph25.9 kmh 29.81 in1009.5 mb - 0.00 in0.0 mm 0.00 in0.0 mm
12:10 PM 43.4°F6.3°C 30.4°F-0.9°C 60% 6.9 mph NW11.1 kmh NW 18.4 mph29.6 kmh 29.81 in1009.5 mb - 0.00 in0.0 mm 0.00 in0.0 mm
12:20 PM 43.4°F6.3°C 30.4°F-0.9°C 60% 5.8 mph NW9.3 kmh NW 15.0 mph24.1 kmh 29.82 in1009.8 mb - 0.00 in0.0 mm 0.00 in0.0 mm
12:30 PM 43.9°F6.6°C 30.5°F-0.8°C 59% 5.8 mph NW9.3 kmh NW 11.5 mph18.5 kmh 29.81 in1009.5 mb - 0.00 in0.0 mm 0.00 in0.0 mm
12:40 PM 44.9°F7.2°C 31.0°F-0.6°C 58% 6.9 mph WNW11.1 kmh WNW 13.8 mph22.2 kmh 29.81 in1009.5 mb - 0.00 in0.0 mm 0.00 in0.0 mm
12:50 PM 44.8°F7.1°C 30.1°F-1.1°C 56% 4.6 mph NW7.4 kmh NW 8.1 mph13.0 kmh 29.82 in1009.8 mb - 0.00 in0.0 mm 0.00 in0.0 mm
01:00 PM 44.6°F7.0°C 29.8°F-1.2°C 56% 9.2 mph NW14.8 kmh NW 19.6 mph31.5 kmh 29.82 in1009.8 mb - 0.00 in0.0 mm 0.00 in0.0 mm
01:10 PM 44.7°F7.1°C 30.0°F-1.1°C 56% 9.2 mph WNW14.8 kmh WNW 10.4 mph16.7 kmh 29.82 in1009.8 mb - 0.00 in0.0 mm 0.00 in0.0 mm
01:20 PM 44.6°F7.0°C 29.9°F-1.2°C 56% 8.1 mph NW13.0 kmh NW 12.7 mph20.4 kmh 29.82 in1009.8 mb - 0.00 in0.0 mm 0.00 in0.0 mm
01:30 PM 44.7°F7.1°C 30.4°F-0.9°C 57% 9.2 mph NW14.8 kmh NW 15.0 mph24.1 kmh 29.82 in1009.8 mb - 0.00 in0.0 mm 0.00 in0.0 mm
01:40 PM 44.9°F7.2°C 30.1°F-1.1°C 56% 11.5 mph NW18.5 kmh NW 12.7 mph20.4 kmh 29.82 in1009.8 mb - 0.00 in0.0 mm 0.00 in0.0 mm
01:50 PM 44.7°F7.1°C 30.0°F-1.1°C 56% 15.0 mph NW24.1 kmh NW 20.7 mph33.3 kmh 29.83 in1010.2 mb - 0.00 in0.0 mm 0.00 in0.0 mm
02:00 PM 44.7°F7.1°C 30.4°F-0.9°C 57% 11.5 mph NW18.5 kmh NW 20.7 mph33.3 kmh 29.83 in1010.2 mb - 0.00 in0.0 mm 0.00 in0.0 mm
02:10 PM 44.7°F7.1°C 30.4°F-0.9°C 57% 11.5 mph NW18.5 kmh NW 18.4 mph29.6 kmh 29.84 in1010.5 mb - 0.00 in0.0 mm 0.00 in0.0 mm
02:20 PM 44.6°F7.0°C 30.3°F-0.9°C 57% 8.1 mph NW13.0 kmh NW 15.0 mph24.1 kmh 29.84 in1010.5 mb - 0.00 in0.0 mm 0.00 in0.0 mm
02:30 PM 44.5°F6.9°C 30.2°F-1.0°C 57% 4.6 mph NW7.4 kmh NW 11.5 mph18.5 kmh 29.85 in1010.8 mb - 0.00 in0.0 mm 0.00 in0.0 mm
02:40 PM 44.9°F7.2°C 30.6°F-0.8°C 57% 4.6 mph NW7.4 kmh NW 8.1 mph13.0 kmh 29.85 in1010.8 mb - 0.00 in0.0 mm 0.00 in0.0 mm
02:50 PM 45.5°F7.5°C 29.8°F-1.2°C 54% 15.0 mph NW24.1 kmh NW 27.6 mph44.4 kmh 29.86 in1011.2 mb - 0.00 in0.0 mm 0.00 in0.0 mm
03:00 PM 46.3°F7.9°C 30.1°F-1.1°C 53% 5.8 mph WNW9.3 kmh WNW 11.5 mph18.5 kmh 29.86 in1011.2 mb - 0.00 in0.0 mm 0.00 in0.0 mm
03:10 PM 46.1°F7.8°C 29.5°F-1.4°C 52% 10.4 mph WNW16.7 kmh WNW 17.3 mph27.8 kmh 29.87 in1011.5 mb - 0.00 in0.0 mm 0.00 in0.0 mm
03:20 PM 46.1°F7.8°C 29.4°F-1.4°C 52% 5.8 mph NW9.3 kmh NW 11.5 mph18.5 kmh 29.88 in1011.9 mb - 0.00 in0.0 mm 0.00 in0.0 mm
03:30 PM 46.1°F7.8°C 29.4°F-1.4°C 52% 2.3 mph NW3.7 kmh NW 4.6 mph7.4 kmh 29.89 in1012.2 mb - 0.00 in0.0 mm 0.00 in0.0 mm
03:40 PM 46.1°F7.8°C 29.4°F-1.4°C 52% 10.4 mph NW16.7 kmh NW 13.8 mph22.2 kmh 29.90 in1012.5 mb - 0.00 in0.0 mm 0.00 in0.0 mm
03:50 PM 46.1°F7.8°C 29.0°F-1.7°C 51% 5.8 mph NW9.3 kmh NW 13.8 mph22.2 kmh 29.90 in1012.5 mb - 0.00 in0.0 mm 0.00 in0.0 mm
04:00 PM 46.2°F7.9°C 28.6°F-1.9°C 50% 8.1 mph NW13.0 kmh NW 18.4 mph29.6 kmh 29.90 in1012.5 mb - 0.00 in0.0 mm 0.00 in0.0 mm
04:10 PM 46.4°F8.0°C 28.8°F-1.8°C 50% 3.5 mph NW5.6 kmh NW 4.6 mph7.4 kmh 29.91 in1012.9 mb - 0.00 in0.0 mm 0.00 in0.0 mm
04:20 PM 47.2°F8.4°C 28.0°F-2.2°C 47% 5.8 mph WNW9.3 kmh WNW 11.5 mph18.5 kmh 29.91 in1012.9 mb - 0.00 in0.0 mm 0.00 in0.0 mm
04:30 PM 47.3°F8.5°C 28.1°F-2.2°C 47% 2.3 mph NNW3.7 kmh NNW 4.6 mph7.4 kmh 29.91 in1012.9 mb - 0.00 in0.0 mm 0.00 in0.0 mm
04:40 PM 47.7°F8.7°C 27.3°F-2.6°C 45% 5.8 mph W9.3 kmh W 11.5 mph18.5 kmh 29.92 in1013.2 mb - 0.00 in0.0 mm 0.00 in0.0 mm
04:50 PM 48.8°F9.3°C 26.1°F-3.3°C 41% 8.1 mph NW13.0 kmh NW 16.1 mph25.9 kmh 29.92 in1013.2 mb - 0.00 in0.0 mm 0.00 in0.0 mm
05:00 PM 48.7°F9.3°C 25.4°F-3.7°C 40% 5.8 mph NW9.3 kmh NW 16.1 mph25.9 kmh 29.92 in1013.2 mb - 0.00 in0.0 mm 0.00 in0.0 mm
05:10 PM 48.8°F9.3°C 24.9°F-3.9°C 39% 6.9 mph NW11.1 kmh NW 17.3 mph27.8 kmh 29.93 in1013.5 mb - 0.00 in0.0 mm 0.00 in0.0 mm
05:20 PM 48.8°F9.3°C 24.9°F-3.9°C 39% 5.8 mph NW9.3 kmh NW 15.0 mph24.1 kmh 29.93 in1013.5 mb - 0.00 in0.0 mm 0.00 in0.0 mm
05:30 PM 48.6°F9.2°C 24.7°F-4.1°C 39% 6.9 mph NW11.1 kmh NW 12.7 mph20.4 kmh 29.94 in1013.9 mb - 0.00 in0.0 mm 0.00 in0.0 mm
05:40 PM 48.4°F9.1°C 25.2°F-3.8°C 40% 6.9 mph W11.1 kmh W 8.1 mph13.0 kmh 29.94 in1013.9 mb - 0.00 in0.0 mm 0.00 in0.0 mm
05:50 PM 48.0°F8.9°C 25.4°F-3.7°C 41% 8.1 mph WNW13.0 kmh WNW 17.3 mph27.8 kmh 29.95 in1014.2 mb - 0.00 in0.0 mm 0.00 in0.0 mm
06:00 PM 48.0°F8.9°C 25.4°F-3.7°C 41% 5.8 mph WNW9.3 kmh WNW 6.9 mph11.1 kmh 29.95 in1014.2 mb - 0.00 in0.0 mm 0.00 in0.0 mm
06:10 PM 48.1°F8.9°C 25.5°F-3.6°C 41% 5.8 mph NW9.3 kmh NW 4.6 mph7.4 kmh 29.96 in1014.6 mb - 0.00 in0.0 mm 0.00 in0.0 mm
06:20 PM 47.8°F8.8°C 24.7°F-4.1°C 40% 4.6 mph NW7.4 kmh NW 8.1 mph13.0 kmh 29.96 in1014.6 mb - 0.00 in0.0 mm 0.00 in0.0 mm
06:30 PM 47.4°F8.6°C 24.3°F-4.3°C 40% 6.9 mph NW11.1 kmh NW 15.0 mph24.1 kmh 29.97 in1014.9 mb - 0.00 in0.0 mm 0.00 in0.0 mm
06:40 PM 47.2°F8.4°C 24.1°F-4.4°C 40% 6.9 mph WNW11.1 kmh WNW 15.0 mph24.1 kmh 29.97 in1014.9 mb - 0.00 in0.0 mm 0.00 in0.0 mm
06:50 PM 47.2°F8.4°C 23.5°F-4.7°C 39% 4.6 mph NW7.4 kmh NW 11.5 mph18.5 kmh 29.98 in1015.2 mb - 0.00 in0.0 mm 0.00 in0.0 mm
07:00 PM 47.0°F8.3°C 23.3°F-4.8°C 39% 6.9 mph NW11.1 kmh NW 17.3 mph27.8 kmh 29.98 in1015.2 mb - 0.00 in0.0 mm 0.00 in0.0 mm
07:10 PM 46.5°F8.1°C 23.4°F-4.8°C 40% 4.6 mph NW7.4 kmh NW 6.9 mph11.1 kmh 29.99 in1015.6 mb - 0.00 in0.0 mm 0.00 in0.0 mm
07:20 PM 46.1°F7.8°C 23.7°F-4.6°C 41% 3.5 mph WNW5.6 kmh WNW 10.4 mph16.7 kmh 29.99 in1015.6 mb - 0.00 in0.0 mm 0.00 in0.0 mm
07:30 PM 45.6°F7.6°C 23.8°F-4.6°C 42% 2.3 mph WNW3.7 kmh WNW 10.4 mph16.7 kmh 29.99 in1015.6 mb - 0.00 in0.0 mm 0.00 in0.0 mm
07:40 PM 45.2°F7.3°C 23.4°F-4.8°C 42% 1.2 mph WNW1.9 kmh WNW 3.5 mph5.6 kmh 30.00 in1015.9 mb - 0.00 in0.0 mm 0.00 in0.0 mm
07:50 PM 44.6°F7.0°C 23.5°F-4.7°C 43% 4.6 mph W7.4 kmh W 6.9 mph11.1 kmh 30.00 in1015.9 mb - 0.00 in0.0 mm 0.00 in0.0 mm
08:00 PM 44.3°F6.8°C 23.7°F-4.6°C 44% 3.5 mph NW5.6 kmh NW 3.5 mph5.6 kmh 30.00 in1015.9 mb - 0.00 in0.0 mm 0.00 in0.0 mm
08:10 PM 44.3°F6.8°C 23.2°F-4.9°C 43% 2.3 mph WNW3.7 kmh WNW 11.5 mph18.5 kmh 30.00 in1015.9 mb - 0.00 in0.0 mm 0.00 in0.0 mm
08:20 PM 44.0°F6.7°C 22.9°F-5.1°C 43% 3.5 mph NW5.6 kmh NW 8.1 mph13.0 kmh 30.01 in1016.3 mb - 0.00 in0.0 mm 0.00 in0.0 mm
08:30 PM 43.8°F6.6°C 22.8°F-5.1°C 43% 3.5 mph NW5.6 kmh NW 10.4 mph16.7 kmh 30.02 in1016.6 mb - 0.00 in0.0 mm 0.00 in0.0 mm
08:40 PM 43.5°F6.4°C 23.0°F-5.0°C 44% 2.3 mph WNW3.7 kmh WNW 11.5 mph18.5 kmh 30.02 in1016.6 mb - 0.00 in0.0 mm 0.00 in0.0 mm
08:50 PM 43.4°F6.3°C 22.9°F-5.1°C 44% 1.2 mph NW1.9 kmh NW 3.5 mph5.6 kmh 30.02 in1016.6 mb - 0.00 in0.0 mm 0.00 in0.0 mm
09:00 PM 43.1°F6.2°C 22.6°F-5.2°C 44% 1.2 mph W1.9 kmh W 5.8 mph9.3 kmh 30.03 in1016.9 mb - 0.00 in0.0 mm 0.00 in0.0 mm
09:10 PM 42.8°F6.0°C 22.9°F-5.1°C 45% 6.9 mph NW11.1 kmh NW 11.5 mph18.5 kmh 30.03 in1016.9 mb - 0.00 in0.0 mm 0.00 in0.0 mm
09:20 PM 42.7°F5.9°C 22.8°F-5.1°C 45% 2.3 mph NW3.7 kmh NW 10.4 mph16.7 kmh 30.03 in1016.9 mb - 0.00 in0.0 mm 0.00 in0.0 mm
09:30 PM 42.5°F5.8°C 22.6°F-5.2°C 45% 5.8 mph NW9.3 kmh NW 13.8 mph22.2 kmh 30.04 in1017.3 mb - 0.00 in0.0 mm 0.00 in0.0 mm
09:40 PM 42.6°F5.9°C 22.7°F-5.2°C 45% 4.6 mph NW7.4 kmh NW 10.4 mph16.7 kmh 30.04 in1017.3 mb - 0.00 in0.0 mm 0.00 in0.0 mm
09:50 PM 42.2°F5.7°C 22.9°F-5.1°C 46% 2.3 mph NW3.7 kmh NW 9.2 mph14.8 kmh 30.04 in1017.3 mb - 0.00 in0.0 mm 0.00 in0.0 mm
10:00 PM 42.0°F5.6°C 22.7°F-5.2°C 46% 6.9 mph NW11.1 kmh NW 15.0 mph24.1 kmh 30.05 in1017.6 mb - 0.00 in0.0 mm 0.00 in0.0 mm
10:10 PM 42.0°F5.6°C 22.7°F-5.2°C 46% 5.8 mph NW9.3 kmh NW 9.2 mph14.8 kmh 30.05 in1017.6 mb - 0.00 in0.0 mm 0.00 in0.0 mm
10:20 PM 41.6°F5.3°C 22.8°F-5.1°C 47% 4.6 mph NW7.4 kmh NW 10.4 mph16.7 kmh 30.06 in1017.9 mb - 0.00 in0.0 mm 0.00 in0.0 mm
10:30 PM 41.2°F5.1°C 23.0°F-5.0°C 48% 3.5 mph NW5.6 kmh NW 11.5 mph18.5 kmh 30.06 in1017.9 mb - 0.00 in0.0 mm 0.00 in0.0 mm
10:40 PM 41.0°F5.0°C 22.8°F-5.1°C 48% 4.6 mph NW7.4 kmh NW 4.6 mph7.4 kmh 30.06 in1017.9 mb - 0.00 in0.0 mm 0.00 in0.0 mm
10:50 PM 40.8°F4.9°C 22.6°F-5.2°C 48% 9.2 mph WNW14.8 kmh WNW 12.7 mph20.4 kmh 30.06 in1017.9 mb - 0.00 in0.0 mm 0.00 in0.0 mm
11:00 PM 40.9°F4.9°C 22.7°F-5.2°C 48% 6.9 mph NW11.1 kmh NW 11.5 mph18.5 kmh 30.06 in1017.9 mb - 0.00 in0.0 mm 0.00 in0.0 mm
11:10 PM 40.8°F4.9°C 22.6°F-5.2°C 48% 5.8 mph NW9.3 kmh NW 11.5 mph18.5 kmh 30.07 in1018.3 mb - 0.00 in0.0 mm 0.00 in0.0 mm
11:20 PM 40.7°F4.8°C 22.5°F-5.3°C 48% 6.9 mph NW11.1 kmh NW 11.5 mph18.5 kmh 30.06 in1017.9 mb - 0.00 in0.0 mm 0.00 in0.0 mm
11:30 PM 40.6°F4.8°C 22.4°F-5.3°C 48% 6.9 mph NW11.1 kmh NW 11.5 mph18.5 kmh 30.07 in1018.3 mb - 0.00 in0.0 mm 0.00 in0.0 mm
11:40 PM 40.4°F4.7°C 22.7°F-5.2°C 49% 5.8 mph NW9.3 kmh NW 11.5 mph18.5 kmh 30.07 in1018.3 mb - 0.00 in0.0 mm 0.00 in0.0 mm
11:50 PM 40.0°F4.4°C 22.4°F-5.3°C 49% 3.5 mph WNW5.6 kmh WNW 3.5 mph5.6 kmh 30.07 in1018.3 mb - 0.00 in0.0 mm 0.00 in0.0 mm